createdAt,value
2022-11-28T00:01:30.166Z,84.36
2022-11-28T00:03:58.233Z,84.52
2022-11-28T00:06:27.414Z,84.48
2022-11-28T00:08:58.715Z,84.28
2022-11-28T00:11:27.083Z,84.49
2022-11-28T00:13:55.484Z,84.23
2022-11-28T00:16:24.515Z,84.23
2022-11-28T00:18:54.554Z,83.95
2022-11-28T00:21:23.473Z,84.27
2022-11-28T00:23:52.963Z,84.10
2022-11-28T00:26:26.990Z,84.54
2022-11-28T00:28:56.596Z,84.41
2022-11-28T00:31:26.940Z,84.64
2022-11-28T00:33:55.093Z,84.51
2022-11-28T00:36:23.977Z,84.73
2022-11-28T00:38:52.242Z,84.48
2022-11-28T00:41:23.866Z,84.56
2022-11-28T00:43:52.410Z,84.55
2022-11-28T00:46:22.004Z,84.93
2022-11-28T00:48:50.407Z,84.73
2022-11-28T00:51:24.015Z,84.84
2022-11-28T00:53:54.317Z,85.04
2022-11-28T00:56:25.167Z,84.83
2022-11-28T00:58:53.354Z,85.03
2022-11-28T01:01:44.172Z,84.86
2022-11-28T01:04:15.505Z,84.97
2022-11-28T01:06:50.173Z,85.12
2022-11-28T01:09:23.032Z,85.12
2022-11-28T01:11:52.838Z,85.20
2022-11-28T01:14:23.603Z,85.29
2022-11-28T01:16:53.546Z,85.45
2022-11-28T01:19:23.005Z,85.58
2022-11-28T01:21:50.826Z,85.67
2022-11-28T01:24:19.547Z,85.79
2022-11-28T01:26:47.298Z,85.75
2022-11-28T01:29:16.728Z,85.95
2022-11-28T01:31:44.604Z,85.99
2022-11-28T01:34:12.433Z,85.97
2022-11-28T01:36:40.092Z,86.11
2022-11-28T01:39:07.913Z,86.08
2022-11-28T01:41:36.049Z,85.83
2022-11-28T01:44:29.662Z,85.84
2022-11-28T01:46:58.642Z,85.79
2022-11-28T01:49:32.064Z,85.86
2022-11-28T01:52:04.987Z,85.86
2022-11-28T01:54:34.492Z,85.70
2022-11-28T01:57:06.290Z,85.90
2022-11-28T01:59:37.737Z,85.71
2022-11-28T02:02:09.667Z,85.97
2022-11-28T02:04:37.617Z,85.73
2022-11-28T02:07:06.133Z,85.61
2022-11-28T02:09:34.004Z,85.81
2022-11-28T02:12:20.316Z,85.80
2022-11-28T02:15:03.501Z,85.91
2022-11-28T02:18:05.269Z,85.67
2022-11-28T02:20:42.670Z,85.42
2022-11-28T02:23:28.819Z,85.50
2022-11-28T02:26:26.076Z,85.54
2022-11-28T02:29:41.924Z,85.54
2022-11-28T02:32:09.848Z,85.27
2022-11-28T02:34:46.929Z,85.48
2022-11-28T02:37:25.429Z,85.45
2022-11-28T02:40:06.669Z,85.63
2022-11-28T02:42:50.981Z,85.72
2022-11-28T02:45:31.793Z,85.47
2022-11-28T02:48:04.891Z,85.60
2022-11-28T02:50:42.160Z,85.49
2022-11-28T02:53:14.268Z,85.73
2022-11-28T02:55:44.193Z,85.54
2022-11-28T02:58:13.029Z,85.32
2022-11-28T03:00:43.882Z,85.35
2022-11-28T03:03:40.455Z,85.53
2022-11-28T03:06:31.282Z,85.49
2022-11-28T03:09:09.905Z,85.70
2022-11-28T03:12:19.098Z,85.58
2022-11-28T03:14:58.779Z,85.32
2022-11-28T03:17:52.897Z,85.45
2022-11-28T03:20:42.833Z,85.72
2022-11-28T03:23:18.313Z,85.75
2022-11-28T03:26:10.711Z,85.68
2022-11-28T03:29:01.913Z,85.75
2022-11-28T03:31:41.331Z,85.77
2022-11-28T03:34:14.123Z,85.39
2022-11-28T03:36:47.702Z,85.87
2022-11-28T03:39:20.155Z,85.90
2022-11-28T03:42:10.258Z,85.82
2022-11-28T03:45:02.021Z,85.84
2022-11-28T03:47:36.806Z,85.91
2022-11-28T03:50:11.417Z,85.82
2022-11-28T03:52:49.626Z,86.30
2022-11-28T03:55:32.824Z,85.95
2022-11-28T03:58:09.910Z,86.10
2022-11-28T04:00:49.565Z,86.55
2022-11-28T04:03:31.763Z,86.33
2022-11-28T04:06:04.499Z,86.34
2022-11-28T04:08:58.715Z,86.11
2022-11-28T04:11:35.528Z,86.34
2022-11-28T04:14:18.056Z,86.38
2022-11-28T04:16:54.059Z,86.03
2022-11-28T04:19:28.793Z,86.02
2022-11-28T04:22:18.207Z,86.16
2022-11-28T04:24:49.237Z,86.23
2022-11-28T04:27:23.396Z,86.23
2022-11-28T04:29:56.203Z,86.13
2022-11-28T04:32:27.072Z,86.00
2022-11-28T04:35:04.848Z,85.65
2022-11-28T04:37:34.624Z,85.82
2022-11-28T04:40:03.799Z,86.15
2022-11-28T04:42:37.789Z,86.22
2022-11-28T04:45:16.211Z,86.32
2022-11-28T04:47:45.310Z,86.51
2022-11-28T04:50:13.663Z,86.25
2022-11-28T04:52:56.818Z,86.33
2022-11-28T04:55:43.493Z,86.12
2022-11-28T04:58:14.476Z,85.85
2022-11-28T05:00:44.177Z,86.04
2022-11-28T05:03:12.192Z,86.27
2022-11-28T05:05:46.432Z,86.10
2022-11-28T05:08:15.013Z,86.38
2022-11-28T05:10:42.734Z,86.39
2022-11-28T05:13:10.545Z,86.26
2022-11-28T05:15:38.486Z,86.28
2022-11-28T05:18:06.291Z,86.14
2022-11-28T05:20:34.447Z,86.26
2022-11-28T05:23:02.341Z,86.32
2022-11-28T05:25:30.073Z,86.42
2022-11-28T05:27:57.954Z,86.23
2022-11-28T05:30:25.882Z,85.93
2022-11-28T05:32:53.663Z,85.81
2022-11-28T05:35:21.486Z,85.89
2022-11-28T05:37:49.362Z,86.12
2022-11-28T05:40:17.106Z,85.96
2022-11-28T05:42:45.143Z,85.94
2022-11-28T05:45:13.024Z,85.77
2022-11-28T05:47:40.884Z,86.15
2022-11-28T05:50:09.103Z,86.14
2022-11-28T05:52:36.928Z,86.10
2022-11-28T05:55:05.050Z,86.14
2022-11-28T05:57:33.300Z,86.03
2022-11-28T06:00:01.250Z,86.12
2022-11-28T06:02:39.756Z,86.16
2022-11-28T06:05:34.804Z,85.89
2022-11-28T06:07:55.931Z,85.99
2022-11-28T06:10:24.078Z,86.11
2022-11-28T06:12:51.723Z,86.10
2022-11-28T06:15:19.857Z,86.17
2022-11-28T06:17:47.762Z,86.05
2022-11-28T06:20:15.488Z,85.91
2022-11-28T06:22:43.392Z,85.73
2022-11-28T06:25:11.344Z,85.92
2022-11-28T06:27:38.989Z,86.27
2022-11-28T06:30:07.683Z,86.26
2022-11-28T06:32:35.605Z,86.14
2022-11-28T06:35:03.477Z,86.10
2022-11-28T06:37:31.400Z,86.02
2022-11-28T06:39:59.505Z,86.09
2022-11-28T06:42:27.214Z,86.07
2022-11-28T06:44:55.275Z,85.97
2022-11-28T06:47:23.276Z,85.77
2022-11-28T06:49:51.001Z,85.81
2022-11-28T06:52:19.049Z,85.78
2022-11-28T06:54:47.045Z,85.78
2022-11-28T06:57:14.803Z,85.45
2022-11-28T06:59:42.800Z,85.44
2022-11-28T07:02:11.819Z,85.58
2022-11-28T07:04:39.778Z,85.54
2022-11-28T07:07:09.247Z,85.38
2022-11-28T07:09:39.349Z,85.45
2022-11-28T07:12:07.343Z,85.54
2022-11-28T07:14:35.350Z,85.12
2022-11-28T07:17:03.162Z,85.27
2022-11-28T07:19:30.836Z,85.15
2022-11-28T07:21:58.789Z,84.94
2022-11-28T07:24:26.812Z,85.00
2022-11-28T07:26:54.522Z,84.75
2022-11-28T07:29:24.645Z,84.91
2022-11-28T07:31:53.741Z,84.80
2022-11-28T07:34:21.644Z,84.64
2022-11-28T07:36:49.614Z,84.56
2022-11-28T07:39:17.667Z,84.56
2022-11-28T07:41:45.667Z,84.05
2022-11-28T07:44:17.892Z,84.29
2022-11-28T07:46:46.464Z,83.83
2022-11-28T07:49:15.451Z,83.69
2022-11-28T07:51:43.414Z,83.45
2022-11-28T07:54:11.479Z,83.50
2022-11-28T07:57:10.818Z,83.59
2022-11-28T07:59:35.909Z,83.70
2022-11-28T08:02:04.310Z,83.66
2022-11-28T08:04:54.933Z,83.77
2022-11-28T08:07:23.424Z,83.54
2022-11-28T08:09:52.050Z,83.53
2022-11-28T08:12:20.041Z,83.22
2022-11-28T08:14:47.954Z,83.36
2022-11-28T08:17:18.869Z,83.22
2022-11-28T08:19:46.582Z,83.03
2022-11-28T08:22:14.393Z,82.99
2022-11-28T08:24:45.674Z,83.07
2022-11-28T08:27:13.524Z,82.92
2022-11-28T08:29:41.685Z,83.08
2022-11-28T08:32:10.012Z,82.79
2022-11-28T08:34:37.780Z,82.46
2022-11-28T08:37:05.824Z,82.23
2022-11-28T08:39:34.191Z,82.66
2022-11-28T08:42:01.842Z,82.55
2022-11-28T08:44:30.730Z,81.79
2022-11-28T08:46:59.007Z,81.93
2022-11-28T08:49:26.806Z,81.73
2022-11-28T08:51:54.726Z,81.47
2022-11-28T08:54:30.233Z,81.26
2022-11-28T08:56:59.139Z,81.63
2022-11-28T08:59:27.278Z,81.15
2022-11-28T09:01:55.480Z,81.31
2022-11-28T09:04:24.025Z,80.97
2022-11-28T09:06:52.753Z,80.76
2022-11-28T09:09:20.536Z,81.02
2022-11-28T09:11:48.639Z,80.30
2022-11-28T09:14:16.622Z,80.26
2022-11-28T09:16:45.791Z,80.46
2022-11-28T09:19:15.936Z,80.48
2022-11-28T09:21:43.975Z,80.24
2022-11-28T09:24:14.063Z,80.08
2022-11-28T09:26:42.864Z,80.01
2022-11-28T09:29:11.017Z,79.75
2022-11-28T09:31:41.988Z,79.75
2022-11-28T09:34:14.386Z,79.40
2022-11-28T09:36:42.165Z,79.66
2022-11-28T09:39:09.934Z,79.71
2022-11-28T09:41:49.468Z,79.59
2022-11-28T09:44:44.801Z,79.70
2022-11-28T09:47:27.733Z,79.43
2022-11-28T09:49:58.268Z,79.07
2022-11-28T09:52:41.546Z,78.66
2022-11-28T09:55:35.180Z,78.68
2022-11-28T09:58:12.839Z,78.24
2022-11-28T10:01:01.780Z,78.11
2022-11-28T10:03:36.890Z,78.36
2022-11-28T10:06:36.622Z,78.33
2022-11-28T10:09:40.639Z,78.78
2022-11-28T10:12:17.586Z,78.39
2022-11-28T10:15:03.595Z,78.36
2022-11-28T10:17:50.324Z,78.05
2022-11-28T10:20:25.682Z,77.55
2022-11-28T10:22:57.877Z,77.58
2022-11-28T10:25:33.678Z,78.09
2022-11-28T10:28:05.797Z,77.68
2022-11-28T10:30:40.079Z,78.09
2022-11-28T10:33:33.759Z,78.04
2022-11-28T10:36:03.356Z,78.05
2022-11-28T10:38:34.572Z,77.95
2022-11-28T10:41:17.446Z,77.29
2022-11-28T10:44:04.114Z,77.53
2022-11-28T10:47:00.547Z,77.36
2022-11-28T10:49:50.046Z,77.16
2022-11-28T10:52:23.962Z,77.09
2022-11-28T10:55:00.752Z,76.69
2022-11-28T10:58:00.744Z,76.34
2022-11-28T11:00:29.127Z,76.04
2022-11-28T11:03:02.362Z,75.69
2022-11-28T11:05:35.953Z,75.12
2022-11-28T11:08:12.862Z,75.16
2022-11-28T11:10:52.974Z,75.26
2022-11-28T11:13:33.282Z,75.16
2022-11-28T11:16:07.229Z,75.45
2022-11-28T11:18:48.641Z,74.68
2022-11-28T11:21:25.016Z,74.58
2022-11-28T11:24:17.178Z,74.88
2022-11-28T11:26:48.294Z,74.43
2022-11-28T11:29:32.895Z,74.45
2022-11-28T11:32:06.057Z,74.14
2022-11-28T11:34:45.896Z,74.27
2022-11-28T11:37:29.122Z,74.05
2022-11-28T11:39:57.703Z,73.68
2022-11-28T11:42:30.784Z,73.54
2022-11-28T11:45:24.737Z,73.43
2022-11-28T11:47:53.243Z,73.61
2022-11-28T11:50:24.005Z,73.52
2022-11-28T11:53:19.132Z,73.34
2022-11-28T11:55:52.796Z,73.38
2022-11-28T11:58:25.377Z,73.21
2022-11-28T12:00:58.441Z,72.91
2022-11-28T12:03:33.233Z,72.91
2022-11-28T12:06:14.192Z,73.09
2022-11-28T12:09:19.578Z,72.94
2022-11-28T12:11:55.007Z,72.77
2022-11-28T12:14:34.849Z,72.19
2022-11-28T12:17:48.861Z,72.24
2022-11-28T12:20:39.709Z,72.13
2022-11-28T12:23:17.365Z,72.23
2022-11-28T12:25:59.648Z,72.23
2022-11-28T12:28:35.135Z,72.40
2022-11-28T12:31:23.152Z,72.79
2022-11-28T12:34:16.568Z,72.60
2022-11-28T12:36:54.884Z,72.42
2022-11-28T12:39:41.312Z,72.55
2022-11-28T12:42:34.356Z,72.60
2022-11-28T12:45:33.347Z,72.46
2022-11-28T12:48:22.715Z,72.45
2022-11-28T12:51:01.047Z,72.37
2022-11-28T12:53:52.820Z,72.10
2022-11-28T12:56:49.428Z,72.20
2022-11-28T12:59:50.816Z,72.35
2022-11-28T13:02:27.898Z,72.19
2022-11-28T13:05:19.988Z,72.07
2022-11-28T13:07:58.091Z,72.59
2022-11-28T13:11:10.480Z,72.66
2022-11-28T13:14:22.332Z,72.68
2022-11-28T13:16:52.586Z,72.59
2022-11-28T13:19:56.040Z,72.78
2022-11-28T13:22:29.627Z,72.92
2022-11-28T13:25:22.163Z,72.96
2022-11-28T13:28:28.790Z,73.03
2022-11-28T13:31:20.136Z,72.98
2022-11-28T13:33:53.582Z,73.04
2022-11-28T13:39:48.033Z,72.91
2022-11-28T13:51:32.063Z,72.68
2022-11-28T13:54:23.746Z,73.00
2022-11-28T13:57:21.815Z,73.02
2022-11-28T14:00:21.845Z,72.91
2022-11-28T14:02:55.757Z,72.92
2022-11-28T14:05:41.560Z,73.01
2022-11-28T14:08:29.192Z,72.83
2022-11-28T14:11:21.451Z,73.19
2022-11-28T14:14:13.299Z,73.13
2022-11-28T14:16:52.137Z,73.14
2022-11-28T14:19:49.405Z,73.15
2022-11-28T14:22:26.946Z,72.98
2022-11-28T14:25:24.162Z,73.25
2022-11-28T14:27:59.408Z,73.30
2022-11-28T14:30:37.172Z,73.47
2022-11-28T14:33:17.301Z,73.49
2022-11-28T14:35:54.641Z,73.88
2022-11-28T14:38:35.792Z,73.84
2022-11-28T14:41:11.971Z,73.96
2022-11-28T14:43:41.606Z,74.08
2022-11-28T14:46:16.629Z,74.23
2022-11-28T14:49:01.492Z,74.38
2022-11-28T14:51:47.405Z,74.38
2022-11-28T14:54:34.432Z,74.74
2022-11-28T14:57:10.553Z,74.81
2022-11-28T14:59:40.256Z,74.81
2022-11-28T15:02:13.070Z,74.85
2022-11-28T15:05:20.447Z,75.35
2022-11-28T15:08:48.429Z,75.31
2022-11-28T15:11:22.980Z,75.42
2022-11-28T15:14:19.710Z,75.32
2022-11-28T15:16:51.234Z,75.65
2022-11-28T15:19:25.719Z,75.31
2022-11-28T15:21:55.142Z,75.33
2022-11-28T15:24:31.885Z,75.10
2022-11-28T15:27:09.444Z,75.24
2022-11-28T15:29:37.304Z,75.32
2022-11-28T15:32:05.771Z,75.64
2022-11-28T15:34:36.710Z,75.46
2022-11-28T15:37:07.567Z,75.44
2022-11-28T15:39:42.087Z,75.36
2022-11-28T15:42:22.427Z,75.50
2022-11-28T15:44:59.945Z,75.48
2022-11-28T15:47:28.669Z,75.62
2022-11-28T15:50:00.604Z,75.62
2022-11-28T15:52:28.900Z,75.62
2022-11-28T15:54:56.675Z,75.40
2022-11-28T15:57:28.387Z,75.65
2022-11-28T15:59:56.971Z,75.68
2022-11-28T16:02:30.491Z,75.50
2022-11-28T16:05:05.599Z,75.27
2022-11-28T16:07:39.030Z,75.62
2022-11-28T16:10:37.109Z,75.42
2022-11-28T16:13:14.138Z,75.30
2022-11-28T16:15:49.893Z,75.53
2022-11-28T16:18:20.003Z,75.42
2022-11-28T16:20:48.153Z,75.12
2022-11-28T16:23:20.364Z,75.69
2022-11-28T16:26:19.444Z,75.32
2022-11-28T16:29:17.039Z,75.32
2022-11-28T16:31:45.386Z,75.55
2022-11-28T16:34:14.871Z,75.48
2022-11-28T16:36:46.821Z,75.40
2022-11-28T16:39:16.946Z,75.39
2022-11-28T16:42:15.920Z,75.14
2022-11-28T16:44:44.363Z,75.35
2022-11-28T16:47:30.620Z,75.08
2022-11-28T16:50:05.235Z,75.45
2022-11-28T16:52:33.151Z,75.19
2022-11-28T16:55:01.081Z,75.04
2022-11-28T16:57:46.088Z,74.95
2022-11-28T17:00:14.124Z,74.96
2022-11-28T17:02:41.859Z,75.14
2022-11-28T17:05:09.991Z,75.21
2022-11-28T17:07:38.359Z,75.06
2022-11-28T17:10:06.599Z,75.19
2022-11-28T17:12:38.957Z,75.03
2022-11-28T17:15:14.167Z,75.09
2022-11-28T17:17:42.241Z,75.27
2022-11-28T17:20:12.244Z,75.06
2022-11-28T17:22:46.955Z,74.91
2022-11-28T17:25:17.800Z,75.19
2022-11-28T17:27:47.839Z,75.05
2022-11-28T17:30:18.249Z,75.08
2022-11-28T17:32:49.224Z,75.57
2022-11-28T17:35:22.381Z,75.47
2022-11-28T17:37:50.859Z,75.34
2022-11-28T17:40:34.031Z,75.43
2022-11-28T17:43:03.538Z,75.01
2022-11-28T17:45:34.973Z,75.32
2022-11-28T17:48:03.264Z,75.46
2022-11-28T17:50:31.700Z,75.48
2022-11-28T17:52:59.636Z,75.88
2022-11-28T17:55:28.977Z,75.59
2022-11-28T17:57:57.115Z,75.87
2022-11-28T18:00:25.279Z,75.35
2022-11-28T18:02:53.398Z,75.60
2022-11-28T18:05:21.566Z,75.71
2022-11-28T18:07:49.999Z,75.67
2022-11-28T18:10:18.354Z,75.47
2022-11-28T18:12:46.281Z,75.50
2022-11-28T18:15:13.977Z,75.44
2022-11-28T18:17:42.202Z,75.66
2022-11-28T18:20:11.307Z,75.53
2022-11-28T18:22:39.303Z,75.52
2022-11-28T18:25:08.832Z,75.64
2022-11-28T18:27:36.801Z,75.71
2022-11-28T18:30:05.227Z,75.39
2022-11-28T18:32:33.526Z,75.17
2022-11-28T18:35:01.301Z,75.34
2022-11-28T18:37:30.097Z,75.39
2022-11-28T18:39:58.409Z,75.38
2022-11-28T18:42:27.665Z,75.52
2022-11-28T18:44:55.553Z,75.32
2022-11-28T18:47:24.939Z,75.53
2022-11-28T18:49:54.415Z,75.25
2022-11-28T18:52:22.424Z,75.19
2022-11-28T18:54:50.413Z,75.16
2022-11-28T18:57:18.343Z,75.00
2022-11-28T18:59:52.918Z,75.12
2022-11-28T19:02:23.705Z,75.10
2022-11-28T19:04:52.796Z,75.40
2022-11-28T19:07:20.814Z,74.95
2022-11-28T19:09:49.264Z,75.26
2022-11-28T19:12:18.957Z,75.20
2022-11-28T19:14:46.812Z,75.27
2022-11-28T19:17:14.868Z,75.33
2022-11-28T19:19:44.417Z,75.31
2022-11-28T19:22:12.331Z,75.02
2022-11-28T19:24:40.367Z,75.15
2022-11-28T19:27:13.841Z,75.14
2022-11-28T19:29:43.283Z,75.42
2022-11-28T19:32:12.628Z,75.42
2022-11-28T19:34:41.252Z,75.35
2022-11-28T19:37:09.332Z,74.99
2022-11-28T19:39:37.423Z,75.09
2022-11-28T19:42:05.249Z,75.17
2022-11-28T19:44:33.337Z,74.96
2022-11-28T19:47:01.448Z,75.08
2022-11-28T19:49:29.949Z,75.05
2022-11-28T19:51:58.461Z,74.97
2022-11-28T19:54:26.881Z,74.85
2022-11-28T19:56:56.493Z,74.94
2022-11-28T19:59:24.679Z,74.98
2022-11-28T20:01:53.878Z,74.84
2022-11-28T20:04:22.876Z,75.14
2022-11-28T20:06:51.241Z,75.02
2022-11-28T20:09:19.454Z,75.03
2022-11-28T20:11:48.354Z,74.83
2022-11-28T20:14:18.721Z,74.78
2022-11-28T20:16:47.140Z,74.70
2022-11-28T20:19:17.767Z,74.69
2022-11-28T20:21:46.690Z,75.04
2022-11-28T20:24:15.673Z,74.80
2022-11-28T20:26:45.541Z,74.74
2022-11-28T20:29:16.770Z,74.83
2022-11-28T20:31:47.504Z,74.59
2022-11-28T20:34:19.346Z,74.78
2022-11-28T20:36:53.644Z,74.70
2022-11-28T20:39:21.929Z,74.83
2022-11-28T20:41:49.656Z,74.98
2022-11-28T20:44:18.822Z,74.87
2022-11-28T20:46:48.813Z,74.99
2022-11-28T20:49:16.851Z,75.01
2022-11-28T20:51:45.136Z,74.84
2022-11-28T20:54:14.167Z,74.84
2022-11-28T20:57:19.293Z,75.14
2022-11-28T20:59:32.990Z,74.99
2022-11-28T21:02:01.080Z,75.09
2022-11-28T21:04:28.846Z,75.10
2022-11-28T21:06:57.097Z,74.97
2022-11-28T21:09:24.861Z,74.71
2022-11-28T21:11:58.091Z,74.93
2022-11-28T21:14:28.691Z,74.97
2022-11-28T21:16:58.107Z,74.93
2022-11-28T21:19:25.975Z,74.78
2022-11-28T21:21:54.188Z,74.99
2022-11-28T21:24:21.963Z,74.94
2022-11-28T21:26:53.840Z,74.87
2022-11-28T21:29:24.033Z,75.04
2022-11-28T21:31:53.131Z,75.07
2022-11-28T21:34:22.372Z,75.03
2022-11-28T21:36:50.732Z,75.10
2022-11-28T21:39:20.384Z,75.17
2022-11-28T21:41:48.431Z,75.08
2022-11-28T21:44:16.629Z,75.14
2022-11-28T21:46:44.578Z,75.17
2022-11-28T21:49:12.722Z,75.06
2022-11-28T21:51:41.626Z,75.14
2022-11-28T21:54:12.773Z,75.16
2022-11-28T21:56:40.942Z,75.25
2022-11-28T21:59:09.551Z,75.31
2022-11-28T22:01:37.410Z,75.23
2022-11-28T22:04:06.315Z,75.17
2022-11-28T22:06:34.245Z,75.22
2022-11-28T22:09:08.980Z,74.94
2022-11-28T22:11:39.104Z,75.21
2022-11-28T22:14:06.886Z,75.11
2022-11-28T22:16:34.720Z,75.04
2022-11-28T22:19:04.184Z,75.28
2022-11-28T22:24:20.392Z,75.20
2022-11-28T22:26:49.508Z,75.33
2022-11-28T22:29:18.486Z,75.14
2022-11-28T22:31:47.393Z,75.23
2022-11-28T22:34:15.392Z,75.13
2022-11-28T22:36:43.380Z,75.35
2022-11-28T22:39:11.932Z,74.89
2022-11-28T22:41:39.944Z,75.19
2022-11-28T22:44:11.562Z,74.99
2022-11-28T22:46:39.882Z,75.03
2022-11-28T22:49:10.674Z,75.12
2022-11-28T22:51:39.951Z,75.25
2022-11-28T22:54:11.204Z,75.26
2022-11-28T22:56:40.836Z,75.09
2022-11-28T22:59:16.554Z,75.19
2022-11-28T23:01:44.554Z,75.35
2022-11-28T23:04:13.191Z,75.20
2022-11-28T23:06:41.064Z,75.30
2022-11-28T23:09:11.973Z,75.06
2022-11-28T23:11:40.528Z,75.26
2022-11-28T23:14:10.066Z,75.36
2022-11-28T23:16:39.160Z,75.43
2022-11-28T23:19:13.574Z,75.53
2022-11-28T23:21:43.706Z,75.43
2022-11-28T23:24:17.985Z,75.39
2022-11-28T23:26:48.149Z,75.20
2022-11-28T23:29:16.739Z,75.20
2022-11-28T23:31:47.066Z,75.16
2022-11-28T23:34:15.481Z,75.33
2022-11-28T23:36:46.710Z,75.43
2022-11-28T23:39:19.889Z,75.30
2022-11-28T23:41:49.044Z,75.25
2022-11-28T23:44:18.722Z,75.40
2022-11-28T23:46:48.276Z,75.45
2022-11-28T23:49:16.571Z,75.40
2022-11-28T23:51:44.476Z,75.18
2022-11-28T23:54:13.059Z,75.30
2022-11-28T23:56:41.857Z,75.38
2022-11-28T23:59:11.663Z,75.25
